Time;durP1;ratioP1;P1;durP2;ratioP2;P2;SDS_P1;SDS_P2;PMS_P1;PMS_P2;Temp;Humidity;BMP_temperature;BMP_pressure;BME280_temperature;BME280_humidity;BME280_pressure;Samples;Min_cycle;Max_cycle;Signal;HPM_P1;HPM_P2
2022/12/31 00:00:32;;;;;;;;;;;;;;;11.37;100.00;102553.50;2071146;28;19936;-74
2022/12/31 00:01:54;;;;;;;;;;;;;;;11.37;100.00;102556.16;2074275;28;19929;-74
2022/12/31 00:03:16;;;;;;;;;;;;;;;11.36;100.00;102556.97;2070606;28;19952;-74
2022/12/31 00:04:38;;;;;;;;;;;;;;;11.35;100.00;102551.66;2075730;28;20376;-74
2022/12/31 00:06:00;;;;;;;;;;;;;;;11.35;100.00;102562.22;2069771;28;19936;-74
2022/12/31 00:07:23;;;;;;;;;;;;;;;11.35;100.00;102556.94;2084153;28;20483;-74
2022/12/31 00:08:46;;;;;;;;;;;;;;;11.34;100.00;102550.75;2089198;28;19924;-73
2022/12/31 00:10:09;;;;;;;;;;;;;;;11.30;100.00;102558.47;2082114;28;20558;-74
2022/12/31 00:11:32;;;;;;;;;;;;;;;11.27;100.00;102559.25;2077249;28;20300;-74
2022/12/31 00:12:52;;;;;;;;;;;;;;;11.24;100.00;102555.56;2085683;28;19928;-74
2022/12/31 00:14:15;;;;;;;;;;;;;;;11.20;100.00;102559.84;2071551;28;19983;-74
2022/12/31 00:15:36;;;;;;;;;;;;;;;11.17;100.00;102552.69;2074700;28;20420;-73
2022/12/31 00:17:01;;;;;;;;;;;;;;;11.16;100.00;102550.88;2080331;28;19929;-74
2022/12/31 00:18:22;;;;;;;;;;;;;;;11.16;100.00;102553.50;2068622;28;19937;-73
2022/12/31 00:19:44;;;;;;;;;;;;;;;11.16;100.00;102552.59;2082675;28;19955;-74
2022/12/31 00:21:06;;;;;;;;;;;;;;;11.15;100.00;102549.09;2088933;28;19969;-74
2022/12/31 00:22:29;;;;;;;;;;;;;;;11.16;100.00;102544.69;2072324;28;19929;-74
2022/12/31 00:23:51;;;;;;;;;;;;;;;11.15;100.00;102551.72;2076561;28;19929;-74
2022/12/31 00:25:15;;;;;;;;;;;;;;;11.14;100.00;102547.28;2071629;28;19972;-75
2022/12/31 00:26:38;;;;;;;;;;;;;;;11.15;100.00;102554.38;2074895;28;20058;-74
2022/12/31 00:27:59;;;;;;;;;;;;;;;11.16;100.00;102563.19;2077098;28;19928;-75
2022/12/31 00:29:21;;;;;;;;;;;;;;;11.13;100.00;102552.50;2075655;28;19979;-74
2022/12/31 00:30:42;;;;;;;;;;;;;;;11.11;100.00;102549.78;2068056;28;19929;-74
2022/12/31 00:32:04;;;;;;;;;;;;;;;11.10;100.00;102544.41;2066480;28;19948;-74
2022/12/31 00:33:25;;;;;;;;;;;;;;;11.09;100.00;102542.66;2083620;28;19924;-74
2022/12/31 00:34:47;;;;;;;;;;;;;;;11.07;100.00;102542.56;2080495;28;20332;-74
2022/12/31 00:36:11;;;;;;;;;;;;;;;11.07;100.00;102545.22;2077194;28;19932;-74
2022/12/31 00:37:33;;;;;;;;;;;;;;;11.07;100.00;102545.22;2077428;28;20084;-74
2022/12/31 00:38:57;;;;;;;;;;;;;;;11.08;100.00;102540.84;2078219;28;19929;-73
2022/12/31 00:40:19;;;;;;;;;;;;;;;11.11;100.00;102539.22;2061667;28;20243;-74
2022/12/31 00:41:42;;;;;;;;;;;;;;;11.13;100.00;102539.28;2072169;28;19966;-74
2022/12/31 00:43:05;;;;;;;;;;;;;;;11.13;100.00;102540.19;2073843;28;19928;-74
2022/12/31 00:44:27;;;;;;;;;;;;;;;11.15;100.00;102538.53;2076998;28;19928;-74
2022/12/31 00:45:49;;;;;;;;;;;;;;;11.17;100.00;102542.09;2078028;28;19948;-74
2022/12/31 00:47:12;;;;;;;;;;;;;;;11.18;100.00;102545.66;2069750;28;19963;-74
2022/12/31 00:48:35;;;;;;;;;;;;;;;11.19;100.00;102540.44;2075413;28;19959;-74
2022/12/31 00:49:57;;;;;;;;;;;;;;;11.22;100.00;102544.06;2077830;28;19929;-74
2022/12/31 00:51:20;;;;;;;;;;;;;;;11.19;100.00;102540.44;2086467;28;19932;-73
2022/12/31 00:52:41;;;;;;;;;;;;;;;11.19;100.00;102543.09;2079660;28;20059;-75
2022/12/31 00:54:03;;;;;;;;;;;;;;;11.20;100.00;102546.63;2069617;28;20023;-73
2022/12/31 00:55:26;;;;;;;;;;;;;;;11.19;100.00;102543.09;2073983;28;20853;-74
2022/12/31 00:56:48;;;;;;;;;;;;;;;11.17;100.00;102536.81;2081670;28;19928;-74
2022/12/31 00:58:09;;;;;;;;;;;;;;;11.17;100.00;102538.56;2070795;28;20460;-73
2022/12/31 00:59:32;;;;;;;;;;;;;;;11.16;100.00;102542.94;2066652;28;20014;-74
2022/12/31 01:00:53;;;;;;;;;;;;;;;11.16;100.00;102542.94;2077872;28;20523;-74
2022/12/31 01:02:15;;;;;;;;;;;;;;;11.17;100.00;102543.84;2068592;28;19932;-74
2022/12/31 01:03:36;;;;;;;;;;;;;;;11.15;100.00;102542.91;2081647;28;21506;-74
2022/12/31 01:04:58;;;;;;;;;;;;;;;11.17;100.00;102546.50;2072179;28;20027;-74
2022/12/31 01:06:19;;;;;;;;;;;;;;;11.18;100.00;102548.28;2074270;28;19936;-74
2022/12/31 01:07:41;;;;;;;;;;;;;;;11.18;100.00;102543.91;2077572;28;19928;-74
2022/12/31 01:09:03;;;;;;;;;;;;;;;11.19;100.00;102543.09;2077258;28;19935;-74
2022/12/31 01:12:04;;;;;;;;;;;;;;;11.23;100.00;102543.19;2054790;28;19925;-74
2022/12/31 01:13:24;;;;;;;;;;;;;;;11.23;100.00;102551.13;2084763;28;19928;-74
2022/12/31 01:14:47;;;;;;;;;;;;;;;11.19;100.00;102548.38;2071692;28;20003;-74
2022/12/31 01:16:08;;;;;;;;;;;;;;;11.16;100.00;102553.50;2066198;28;19983;-74
2022/12/31 01:17:31;;;;;;;;;;;;;;;11.14;100.00;102546.38;2074056;28;19929;-74
2022/12/31 01:18:52;;;;;;;;;;;;;;;11.11;100.00;102544.50;2077296;28;19928;-74
2022/12/31 01:20:14;;;;;;;;;;;;;;;11.10;100.00;102547.06;2077899;28;19983;-74
2022/12/31 01:21:37;;;;;;;;;;;;;;;11.08;100.00;102544.38;2077182;28;19994;-74
2022/12/31 01:22:58;;;;;;;;;;;;;;;11.07;100.00;102545.22;2080417;28;20400;-74
2022/12/31 01:24:20;;;;;;;;;;;;;;;11.06;100.00;102540.75;2080311;28;19928;-71
2022/12/31 01:25:44;;;;;;;;;;;;;;;11.04;100.00;102546.81;2086494;28;19929;-72
2022/12/31 01:27:07;;;;;;;;;;;;;;;11.03;100.00;102539.72;2079520;28;20603;-72
2022/12/31 01:28:28;;;;;;;;;;;;;;;11.03;100.00;102537.06;2070036;28;19936;-72
2022/12/31 01:29:50;;;;;;;;;;;;;;;11.03;100.00;102537.06;2080689;28;19928;-72
2022/12/31 01:31:13;;;;;;;;;;;;;;;11.03;100.00;102537.97;2077153;28;19921;-72
2022/12/31 01:32:35;;;;;;;;;;;;;;;11.07;100.00;102539.03;2082028;28;20315;-73
2022/12/31 01:33:58;;;;;;;;;;;;;;;11.08;100.00;102535.56;2085553;28;19980;-73
2022/12/31 01:35:19;;;;;;;;;;;;;;;11.08;100.00;102539.09;2085473;28;19921;-72
2022/12/31 01:36:41;;;;;;;;;;;;;;;11.09;100.00;102538.22;2093650;28;20319;-73
2022/12/31 01:38:02;;;;;;;;;;;;;;;11.09;100.00;102538.22;2088564;28;19963;-73
2022/12/31 01:39:24;;;;;;;;;;;;;;;11.10;100.00;102544.41;2092857;28;19928;-72
2022/12/31 01:40:47;;;;;;;;;;;;;;;11.09;100.00;102545.28;2089375;28;19921;-73
2022/12/31 01:42:10;;;;;;;;;;;;;;;11.07;100.00;102542.56;2087299;28;20357;-73
2022/12/31 01:43:42;;;;;;;;;;;;;;;11.05;100.00;102546.88;2087024;28;20276;-72
2022/12/31 01:45:09;;;;;;;;;;;;;;;11.02;100.00;102546.78;2081915;28;22015;-73
2022/12/31 01:46:36;;;;;;;;;;;;;;;10.99;100.00;102543.97;2079669;28;19921;-73
2022/12/31 01:47:59;;;;;;;;;;;;;;;10.96;100.00;102537.69;2081275;28;20385;-73
2022/12/31 01:49:24;;;;;;;;;;;;;;;10.97;100.00;102539.47;2087401;28;19928;-73
2022/12/31 01:50:47;;;;;;;;;;;;;;;10.97;100.00;102543.00;2086630;28;19928;-72
2022/12/31 01:52:11;;;;;;;;;;;;;;;10.96;100.00;102535.03;2087263;28;19928;-73
2022/12/31 01:53:33;;;;;;;;;;;;;;;10.95;100.00;102534.13;2088195;28;20016;-73
2022/12/31 01:54:56;;;;;;;;;;;;;;;10.95;100.00;102536.78;2078405;28;19975;-73
2022/12/31 01:56:21;;;;;;;;;;;;;;;10.97;100.00;102531.53;2079207;28;19925;-73
2022/12/31 01:57:43;;;;;;;;;;;;;;;10.99;100.00;102533.41;2093390;28;19965;-73
2022/12/31 01:59:06;;;;;;;;;;;;;;;11.01;100.00;102538.78;2089592;28;19944;-73
2022/12/31 02:00:28;;;;;;;;;;;;;;;11.03;100.00;102545.00;2082560;28;20403;-74
2022/12/31 02:01:52;;;;;;;;;;;;;;;11.03;100.00;102542.34;2078642;28;20302;-73
2022/12/31 02:03:14;;;;;;;;;;;;;;;11.02;100.00;102536.19;2086381;28;19928;-73
2022/12/31 02:04:35;;;;;;;;;;;;;;;11.00;100.00;102536.97;2087047;28;20474;-73
2022/12/31 02:06:02;;;;;;;;;;;;;;;10.96;100.00;102538.56;2078181;28;19921;-73
2022/12/31 02:07:23;;;;;;;;;;;;;;;10.92;100.00;102541.91;2085408;28;19928;-73
2022/12/31 02:08:45;;;;;;;;;;;;;;;10.91;100.00;102532.19;2080012;28;19921;-73
2022/12/31 02:10:06;;;;;;;;;;;;;;;10.90;100.00;102530.38;2075708;28;19921;-74
2022/12/31 02:11:36;;;;;;;;;;;;;;;10.90;100.00;102530.38;2067937;28;19960;-73
2022/12/31 02:12:58;;;;;;;;;;;;;;;10.90;100.00;102532.09;2083809;28;19925;-73
2022/12/31 02:14:22;;;;;;;;;;;;;;;10.88;100.00;102531.16;2078013;28;19929;-73
2022/12/31 02:15:51;;;;;;;;;;;;;;;10.87;100.00;102539.91;2080678;28;19968;-72
2022/12/31 02:17:20;;;;;;;;;;;;;;;10.84;100.00;102535.38;2079598;28;20026;-73
2022/12/31 02:18:44;;;;;;;;;;;;;;;10.82;100.00;102536.19;2077614;28;19928;-73
2022/12/31 02:20:24;;;;;;;;;;;;;;;10.78;100.00;102535.13;2070941;28;20019;-73
2022/12/31 02:21:54;;;;;;;;;;;;;;;10.74;100.00;102533.19;2080560;28;19925;-73
2022/12/31 02:23:35;;;;;;;;;;;;;;;10.71;100.00;102539.25;2078747;28;19925;-73
2022/12/31 02:25:15;;;;;;;;;;;;;;;10.70;100.00;102536.53;2092150;28;19928;-73
2022/12/31 02:27:12;;;;;;;;;;;;;;;10.68;100.00;102544.41;2079735;28;19921;-73
2022/12/31 02:28:43;;;;;;;;;;;;;;;10.68;100.00;102546.16;2081397;28;20278;-73
2022/12/31 02:30:09;;;;;;;;;;;;;;;10.67;100.00;102544.34;2087252;28;19921;-73
2022/12/31 02:31:33;;;;;;;;;;;;;;;10.68;100.00;102546.16;2087037;28;19991;-73
2022/12/31 02:32:59;;;;;;;;;;;;;;;10.73;100.00;102552.53;2085974;28;19975;-73
2022/12/31 02:34:24;;;;;;;;;;;;;;;10.77;100.00;102549.16;2086869;28;19940;-73
2022/12/31 02:35:49;;;;;;;;;;;;;;;10.81;100.00;102544.94;2089954;28;19927;-73
2022/12/31 02:37:11;;;;;;;;;;;;;;;10.84;100.00;102547.69;2080807;28;19920;-72
2022/12/31 02:38:35;;;;;;;;;;;;;;;10.85;100.00;102544.22;2078319;28;20227;-73
2022/12/31 02:39:57;;;;;;;;;;;;;;;10.87;100.00;102539.91;2074047;28;19944;-73
2022/12/31 02:42:56;;;;;;;;;;;;;;;10.88;100.00;102542.63;2080666;28;19921;-73
2022/12/31 02:44:20;;;;;;;;;;;;;;;10.89;100.00;102548.81;2077848;28;19937;-73
2022/12/31 02:45:45;;;;;;;;;;;;;;;10.89;100.00;102544.44;2071882;28;19992;-72
2022/12/31 02:47:11;;;;;;;;;;;;;;;10.89;100.00;102541.81;2084281;28;19928;-74
2022/12/31 02:48:39;;;;;;;;;;;;;;;10.89;100.00;102549.72;2086469;28;19948;-74
2022/12/31 02:50:06;;;;;;;;;;;;;;;10.91;100.00;102542.75;2078134;28;19921;-73
2022/12/31 02:51:34;;;;;;;;;;;;;;;10.90;100.00;102543.56;2092172;28;19925;-73
2022/12/31 02:53:02;;;;;;;;;;;;;;;10.92;100.00;102544.56;2071671;28;19952;-73
2022/12/31 02:54:30;;;;;;;;;;;;;;;10.93;100.00;102546.38;2076737;28;19932;-73
2022/12/31 02:55:54;;;;;;;;;;;;;;;10.92;100.00;102543.66;2081012;28;20169;-72
2022/12/31 02:57:21;;;;;;;;;;;;;;;10.91;100.00;102545.38;2077828;28;19921;-73
2022/12/31 03:02:15;;;;;;;;;;;;;;;10.92;100.00;102549.84;2080417;28;19928;-72
2022/12/31 03:03:38;;;;;;;;;;;;;;;10.92;100.00;102554.22;2078610;28;19925;-73
2022/12/31 03:05:01;;;;;;;;;;;;;;;10.90;100.00;102548.88;2069919;28;20337;-73
2022/12/31 03:06:23;;;;;;;;;;;;;;;10.88;100.00;102549.66;2084115;28;19975;-72
2022/12/31 03:07:45;;;;;;;;;;;;;;;10.84;100.00;102545.97;2077428;28;19921;-72
2022/12/31 03:09:13;;;;;;;;;;;;;;;10.81;100.00;102551.13;2080950;28;19929;-72
2022/12/31 03:10:35;;;;;;;;;;;;;;;10.79;100.00;102547.50;2078325;28;19925;-73
2022/12/31 03:13:36;;;;;;;;;;;;;;;10.78;100.00;102551.88;2079879;28;19921;-73
2022/12/31 03:14:58;;;;;;;;;;;;;;;10.79;100.00;102552.78;2074287;28;19941;-73
2022/12/31 03:16:20;;;;;;;;;;;;;;;10.82;100.00;102552.94;2083894;28;19928;-72
2022/12/31 03:17:43;;;;;;;;;;;;;;;10.87;100.00;102545.19;2083223;28;19927;-73
2022/12/31 03:22:28;;;;;;;;;;;;;;;11.15;100.00;102554.38;2095211;28;19944;-73
2022/12/31 03:25:36;;;;;;;;;;;;;;;11.33;100.00;102550.69;2088146;28;19936;-73
2022/12/31 03:26:57;;;;;;;;;;;;;;;11.39;100.00;102549.19;2087747;28;19969;-72
2022/12/31 03:28:20;;;;;;;;;;;;;;;11.45;100.00;102552.09;2077790;28;19925;-72
2022/12/31 03:29:41;;;;;;;;;;;;;;;11.49;100.00;102548.72;2092616;28;19928;-73
2022/12/31 03:31:03;;;;;;;;;;;;;;;11.53;100.00;102553.31;2084567;28;20004;-73
2022/12/31 03:32:25;;;;;;;;;;;;;;;11.56;100.00;102553.41;2082868;28;19921;-73
2022/12/31 03:33:48;;;;;;;;;;;;;;;11.57;100.00;102542.00;2086572;28;19927;-73
2022/12/31 03:35:11;;;;;;;;;;;;;;;11.58;100.00;102546.44;2078601;28;20427;-73
2022/12/31 03:36:33;;;;;;;;;;;;;;;11.58;100.00;102545.53;2086882;28;20032;-73
2022/12/31 03:37:56;;;;;;;;;;;;;;;11.55;100.00;102551.59;2081319;28;20007;-72
2022/12/31 03:39:17;;;;;;;;;;;;;;;11.55;100.00;102551.59;2073881;28;19921;-73
2022/12/31 03:40:41;;;;;;;;;;;;;;;11.55;100.00;102548.09;2084979;28;19931;-73
2022/12/31 03:42:02;;;;;;;;;;;;;;;11.56;100.00;102549.84;2085899;28;20359;-73
2022/12/31 03:43:24;;;;;;;;;;;;;;;11.58;100.00;102557.03;2086083;28;19921;-72
2022/12/31 03:44:45;;;;;;;;;;;;;;;11.62;100.00;102546.59;2078599;28;19928;-73
2022/12/31 03:46:07;;;;;;;;;;;;;;;11.64;100.00;102550.16;2091498;28;19959;-73
2022/12/31 03:47:28;;;;;;;;;;;;;;;11.65;100.00;102552.88;2080927;28;19925;-73
2022/12/31 03:48:51;;;;;;;;;;;;;;;11.65;100.00;102550.25;2075055;28;20630;-72
2022/12/31 03:50:13;;;;;;;;;;;;;;;11.66;100.00;102553.78;2076275;28;19921;-72
2022/12/31 03:51:35;;;;;;;;;;;;;;;11.63;100.00;102549.28;2077847;28;19976;-73
2022/12/31 03:52:58;;;;;;;;;;;;;;;11.60;100.00;102551.81;2079442;28;20312;-73
2022/12/31 03:54:19;;;;;;;;;;;;;;;11.57;100.00;102554.31;2077963;28;19924;-73
2022/12/31 03:55:42;;;;;;;;;;;;;;;11.55;100.00;102553.38;2077839;28;19921;-73
2022/12/31 03:57:02;;;;;;;;;;;;;;;11.53;100.00;102557.69;2080084;28;19920;-73
2022/12/31 03:58:24;;;;;;;;;;;;;;;11.51;100.00;102551.44;2079553;28;19925;-73
2022/12/31 03:59:45;;;;;;;;;;;;;;;11.50;100.00;102552.25;2078046;28;19920;-73
2022/12/31 04:01:07;;;;;;;;;;;;;;;11.47;100.00;102558.34;2077230;28;19928;-73
2022/12/31 04:02:30;;;;;;;;;;;;;;;11.48;100.00;102556.59;2083706;28;20396;-73
2022/12/31 04:03:53;;;;;;;;;;;;;;;11.47;100.00;102552.16;2077646;28;19921;-73
2022/12/31 04:05:16;;;;;;;;;;;;;;;11.47;100.00;102555.69;2075358;28;20360;-74
2022/12/31 04:06:37;;;;;;;;;;;;;;;11.46;100.00;102561.81;2075097;28;19964;-73
2022/12/31 04:07:59;;;;;;;;;;;;;;;11.44;100.00;102547.63;2076510;28;19924;-73
2022/12/31 04:09:20;;;;;;;;;;;;;;;11.41;100.00;102557.19;2082331;28;19921;-73
2022/12/31 04:10:42;;;;;;;;;;;;;;;11.37;100.00;102561.44;2086282;28;20278;-73
2022/12/31 04:12:03;;;;;;;;;;;;;;;11.33;100.00;102564.81;2086546;28;19920;-74
2022/12/31 04:13:25;;;;;;;;;;;;;;;11.29;100.00;102562.84;2082702;28;20393;-73
2022/12/31 04:14:48;;;;;;;;;;;;;;;11.26;100.00;102568.03;2076558;28;19929;-73
2022/12/31 04:16:09;;;;;;;;;;;;;;;11.23;100.00;102564.34;2084048;28;20396;-73
2022/12/31 04:17:31;;;;;;;;;;;;;;;11.23;100.00;102569.63;2071376;28;20016;-74
2022/12/31 04:18:53;;;;;;;;;;;;;;;11.23;100.00;102572.28;2085663;28;19925;-74
2022/12/31 04:20:16;;;;;;;;;;;;;;;11.22;100.00;102571.41;2077635;28;20467;-73
2022/12/31 04:21:37;;;;;;;;;;;;;;;11.23;100.00;102566.97;2082471;28;19959;-73
2022/12/31 04:22:59;;;;;;;;;;;;;;;11.21;100.00;102573.97;2076944;28;19928;-73
2022/12/31 04:24:20;;;;;;;;;;;;;;;11.18;100.00;102573.00;2079997;28;19970;-73
2022/12/31 04:25:43;;;;;;;;;;;;;;;11.16;100.00;102573.75;2087709;28;19927;-73
2022/12/31 04:27:06;;;;;;;;;;;;;;;11.12;100.00;102580.66;2078173;28;20349;-73
2022/12/31 04:28:28;;;;;;;;;;;;;;;11.12;100.00;102579.75;2070058;28;19921;-73
2022/12/31 04:29:50;;;;;;;;;;;;;;;11.10;100.00;102574.41;2082252;28;20015;-74
2022/12/31 04:31:11;;;;;;;;;;;;;;;11.11;100.00;102578.84;2077237;28;19921;-74
2022/12/31 04:32:33;;;;;;;;;;;;;;;11.13;100.00;102582.47;2075400;28;19976;-73
2022/12/31 04:33:55;;;;;;;;;;;;;;;11.14;100.00;102573.72;2082900;28;19970;-74
2022/12/31 04:35:17;;;;;;;;;;;;;;;11.14;100.00;102579.00;2080659;28;19921;-73
2022/12/31 04:36:40;;;;;;;;;;;;;;;11.14;100.00;102581.66;2086254;28;19925;-73
2022/12/31 04:38:01;;;;;;;;;;;;;;;11.15;100.00;102586.09;2077960;28;19932;-73
2022/12/31 04:39:23;;;;;;;;;;;;;;;11.17;100.00;102580.84;2091247;28;20009;-74
2022/12/31 04:42:21;;;;;;;;;;;;;;;11.21;100.00;102592.47;2088087;28;20442;-73
2022/12/31 04:43:43;;;;;;;;;;;;;;;11.23;100.00;102590.78;2080279;28;19928;-74
2022/12/31 04:45:05;;;;;;;;;;;;;;;11.24;100.00;102590.84;2082686;28;19921;-73
2022/12/31 04:46:28;;;;;;;;;;;;;;;11.23;100.00;102599.63;2079454;28;19956;-73
2022/12/31 04:47:50;;;;;;;;;;;;;;;11.20;100.00;102594.22;2089254;28;19920;-73
2022/12/31 04:49:13;;;;;;;;;;;;;;;11.18;100.00;102598.53;2078979;28;19921;-73
2022/12/31 04:50:38;;;;;;;;;;;;;;;11.16;100.00;102594.91;2083006;28;19921;-73
2022/12/31 04:51:59;;;;;;;;;;;;;;;11.14;100.00;102601.88;2074310;28;19924;-73
2022/12/31 04:53:21;;;;;;;;;;;;;;;11.16;100.00;102600.19;2081169;28;20424;-73
2022/12/31 04:54:43;;;;;;;;;;;;;;;11.18;100.00;102602.06;2076900;28;20365;-73
2022/12/31 04:56:05;;;;;;;;;;;;;;;11.23;100.00;102604.91;2083228;28;19928;-74
2022/12/31 04:57:27;;;;;;;;;;;;;;;11.28;100.00;102605.13;2092896;28;20466;-74
2022/12/31 04:58:50;;;;;;;;;;;;;;;11.33;100.00;102600.91;2079848;28;19925;-73
2022/12/31 05:00:13;;;;;;;;;;;;;;;11.38;100.00;102609.94;2076258;28;19924;-74
2022/12/31 05:01:35;;;;;;;;;;;;;;;11.42;100.00;102612.75;2082426;28;19921;-74
2022/12/31 05:02:56;;;;;;;;;;;;;;;11.46;100.00;102609.44;2085190;28;19920;-73
2022/12/31 05:04:20;;;;;;;;;;;;;;;11.51;100.00;102613.16;2077573;28;19923;-73
2022/12/31 05:05:42;;;;;;;;;;;;;;;11.57;100.00;102612.50;2077231;28;19920;-73
2022/12/31 05:07:04;;;;;;;;;;;;;;;11.61;100.00;102614.47;2079581;28;20408;-73
2022/12/31 05:08:25;;;;;;;;;;;;;;;11.66;100.00;102609.34;2078150;28;20353;-73
2022/12/31 05:09:47;;;;;;;;;;;;;;;11.69;100.00;102605.06;2074216;28;19928;-72
2022/12/31 05:11:08;;;;;;;;;;;;;;;11.72;100.00;102610.50;2078724;28;19925;-73
2022/12/31 05:12:31;;;;;;;;;;;;;;;11.75;100.00;102608.00;2077999;28;19976;-73
2022/12/31 05:13:53;;;;;;;;;;;;;;;11.77;100.00;102601.03;2072298;28;20674;-73
2022/12/31 05:15:16;;;;;;;;;;;;;;;11.80;100.00;102608.19;2086368;28;19920;-73
2022/12/31 05:16:38;;;;;;;;;;;;;;;11.82;100.00;102615.34;2079047;28;19921;-73
2022/12/31 05:17:59;;;;;;;;;;;;;;;11.83;100.00;102609.22;2085327;28;19929;-73
2022/12/31 05:19:23;;;;;;;;;;;;;;;11.83;100.00;102619.78;2078938;28;19924;-74
2022/12/31 05:20:43;;;;;;;;;;;;;;;11.83;100.00;102617.16;2083728;28;19920;-73
2022/12/31 05:23:45;;;;;;;;;;;;;;;11.82;100.00;102614.44;2084632;28;20019;-72
2022/12/31 05:25:06;;;;;;;;;;;;;;;11.82;100.00;102619.72;2089320;28;20443;-73
2022/12/31 05:26:28;;;;;;;;;;;;;;;11.79;100.00;102614.34;2087241;28;19927;-74
2022/12/31 05:27:49;;;;;;;;;;;;;;;11.76;100.00;102612.44;2086438;28;19936;-73
2022/12/31 05:29:11;;;;;;;;;;;;;;;11.74;100.00;102611.50;2080121;28;19956;-73
2022/12/31 05:30:32;;;;;;;;;;;;;;;11.74;100.00;102614.16;2080987;28;20577;-73
2022/12/31 05:31:55;;;;;;;;;;;;;;;11.77;100.00;102621.28;2083020;28;19974;-73
2022/12/31 05:33:17;;;;;;;;;;;;;;;11.78;100.00;102618.72;2086783;28;20022;-73
2022/12/31 05:34:41;;;;;;;;;;;;;;;11.79;100.00;102617.88;2081521;28;19921;-73
2022/12/31 05:36:03;;;;;;;;;;;;;;;11.81;100.00;102624.16;2079006;28;19933;-73
2022/12/31 05:37:24;;;;;;;;;;;;;;;11.83;100.00;102624.19;2070954;28;19921;-74
2022/12/31 05:38:46;;;;;;;;;;;;;;;11.87;100.00;102626.13;2075456;28;19921;-73
2022/12/31 05:40:08;;;;;;;;;;;;;;;11.89;100.00;102627.97;2082573;28;19925;-73
2022/12/31 05:41:30;;;;;;;;;;;;;;;11.90;100.00;102620.94;2085150;28;19942;-73
2022/12/31 05:42:51;;;;;;;;;;;;;;;11.92;100.00;102619.28;2095413;28;20298;-73
2022/12/31 05:44:13;;;;;;;;;;;;;;;11.93;100.00;102623.72;2081382;28;19921;-73
2022/12/31 05:45:34;;;;;;;;;;;;;;;11.93;100.00;102622.00;2076520;28;19921;-73
2022/12/31 05:46:56;;;;;;;;;;;;;;;11.93;100.00;102611.41;2084026;28;19920;-73
2022/12/31 05:48:18;;;;;;;;;;;;;;;11.93;100.00;102621.09;2078347;28;19921;-73
2022/12/31 05:49:42;;;;;;;;;;;;;;;11.92;100.00;102625.47;2079020;28;19925;-74
2022/12/31 05:51:04;;;;;;;;;;;;;;;11.92;100.00;102627.22;2080173;28;19949;-73
2022/12/31 05:52:25;;;;;;;;;;;;;;;11.91;100.00;102626.31;2078928;28;19933;-73
2022/12/31 05:53:47;;;;;;;;;;;;;;;11.90;100.00;102631.53;2086056;28;19921;-73
2022/12/31 05:55:09;;;;;;;;;;;;;;;11.90;100.00;102623.59;2086747;28;19943;-73
2022/12/31 05:56:31;;;;;;;;;;;;;;;11.90;100.00;102627.16;2075874;28;19925;-74
2022/12/31 05:57:52;;;;;;;;;;;;;;;11.91;100.00;102626.31;2084588;28;20018;-73
2022/12/31 05:59:14;;;;;;;;;;;;;;;11.92;100.00;102624.56;2079736;28;19925;-73
2022/12/31 06:00:36;;;;;;;;;;;;;;;11.94;100.00;102631.75;2082656;28;19929;-74
2022/12/31 06:01:57;;;;;;;;;;;;;;;11.97;100.00;102625.66;2084082;28;19943;-74
2022/12/31 06:03:22;;;;;;;;;;;;;;;11.98;100.00;102625.72;2084699;28;19921;-73
2022/12/31 06:04:46;;;;;;;;;;;;;;;12.01;100.00;102630.25;2084309;28;20404;-74
2022/12/31 06:06:09;;;;;;;;;;;;;;;12.02;100.00;102626.72;2086461;28;19920;-74
2022/12/31 06:07:31;;;;;;;;;;;;;;;12.03;100.00;102624.97;2085932;28;20388;-73
2022/12/31 06:08:53;;;;;;;;;;;;;;;12.03;100.00;102620.59;2085580;28;20456;-73
2022/12/31 06:10:15;;;;;;;;;;;;;;;12.07;100.00;102621.63;2078042;28;19928;-73
2022/12/31 06:11:36;;;;;;;;;;;;;;;12.06;100.00;102619.81;2079811;28;19921;-74
2022/12/31 06:12:58;;;;;;;;;;;;;;;12.05;100.00;102620.66;2078495;28;20137;-74
2022/12/31 06:14:19;;;;;;;;;;;;;;;12.03;100.00;102622.34;2075203;28;19921;-74
2022/12/31 06:15:41;;;;;;;;;;;;;;;12.02;100.00;102631.13;2088303;28;19930;-74
2022/12/31 06:17:02;;;;;;;;;;;;;;;12.00;100.00;102628.44;2089487;28;19921;-74
2022/12/31 06:18:24;;;;;;;;;;;;;;;12.00;100.00;102627.53;2086115;28;20659;-74
2022/12/31 06:19:48;;;;;;;;;;;;;;;12.00;100.00;102622.22;2087111;28;19924;-74
2022/12/31 06:21:10;;;;;;;;;;;;;;;11.99;100.00;102629.25;2079171;28;19925;-74
2022/12/31 06:22:31;;;;;;;;;;;;;;;11.99;100.00;102626.63;2083428;28;19936;-73
2022/12/31 06:23:53;;;;;;;;;;;;;;;12.00;100.00;102627.53;2086283;28;20669;-73
2022/12/31 06:25:16;;;;;;;;;;;;;;;11.98;100.00;102625.72;2086318;28;19921;-74
2022/12/31 06:26:37;;;;;;;;;;;;;;;11.98;100.00;102627.47;2077597;28;19921;-73
2022/12/31 06:27:59;;;;;;;;;;;;;;;11.98;100.00;102625.72;2084183;28;20015;-73
2022/12/31 06:29:20;;;;;;;;;;;;;;;11.97;100.00;102617.69;2078385;28;20448;-73
2022/12/31 06:30:42;;;;;;;;;;;;;;;11.97;100.00;102630.94;2083015;28;19920;-73
2022/12/31 06:32:05;;;;;;;;;;;;;;;11.95;100.00;102627.31;2084995;28;20298;-73
2022/12/31 06:33:27;;;;;;;;;;;;;;;11.94;100.00;102626.44;2086472;28;21298;-74
2022/12/31 06:34:49;;;;;;;;;;;;;;;11.92;100.00;102620.19;2086911;28;19932;-73
2022/12/31 06:36:12;;;;;;;;;;;;;;;11.92;100.00;102627.22;2087002;28;20614;-73
2022/12/31 06:37:34;;;;;;;;;;;;;;;11.91;100.00;102634.25;2070220;28;19929;-73
2022/12/31 06:38:55;;;;;;;;;;;;;;;11.89;100.00;102630.63;2081143;28;19925;-74
2022/12/31 06:40:17;;;;;;;;;;;;;;;11.90;100.00;102640.38;2086422;28;19932;-73
2022/12/31 06:41:38;;;;;;;;;;;;;;;11.92;100.00;102641.34;2086412;28;19921;-74
2022/12/31 06:43:01;;;;;;;;;;;;;;;11.93;100.00;102637.88;2085847;28;19935;-74
2022/12/31 06:44:23;;;;;;;;;;;;;;;11.94;100.00;102644.06;2087300;28;19921;-74
2022/12/31 06:45:44;;;;;;;;;;;;;;;11.95;100.00;102637.91;2086046;28;20412;-74
2022/12/31 06:47:06;;;;;;;;;;;;;;;11.95;100.00;102637.91;2086496;28;19931;-73
2022/12/31 06:48:28;;;;;;;;;;;;;;;11.95;100.00;102640.56;2080239;28;19929;-74
2022/12/31 06:49:52;;;;;;;;;;;;;;;11.95;100.00;102645.84;2075863;28;20539;-74
2022/12/31 06:51:14;;;;;;;;;;;;;;;11.95;100.00;102641.47;2082430;28;19921;-73
2022/12/31 06:52:36;;;;;;;;;;;;;;;11.98;100.00;102653.94;2086261;28;19960;-74
2022/12/31 06:53:58;;;;;;;;;;;;;;;12.02;100.00;102649.63;2078652;28;19966;-74
2022/12/31 06:55:20;;;;;;;;;;;;;;;12.04;100.00;102648.88;2074796;28;19921;-74
2022/12/31 06:56:42;;;;;;;;;;;;;;;12.10;100.00;102648.22;2083131;28;19921;-73
2022/12/31 06:58:03;;;;;;;;;;;;;;;12.24;100.00;102647.91;2078539;28;19921;-73
2022/12/31 06:59:27;;;;;;;;;;;;;;;12.37;100.00;102647.56;2077615;28;19920;-73
2022/12/31 07:00:54;;;;;;;;;;;;;;;12.44;100.00;102646.03;2083812;28;19921;-74
2022/12/31 07:02:31;;;;;;;;;;;;;;;12.48;100.00;102647.03;2086873;28;19921;-74
2022/12/31 07:03:58;;;;;;;;;;;;;;;12.48;100.00;102647.94;2080532;28;19947;-74
2022/12/31 07:05:44;;;;;;;;;;;;;;;12.46;100.00;102644.34;2076166;28;19960;-73
2022/12/31 07:07:07;;;;;;;;;;;;;;;12.45;100.00;102652.25;2088513;28;19947;-73
2022/12/31 07:08:43;;;;;;;;;;;;;;;12.47;100.00;102656.72;2078870;28;19921;-73
2022/12/31 07:10:13;;;;;;;;;;;;;;;12.52;100.00;102656.94;2086272;28;20383;-74
2022/12/31 07:11:39;;;;;;;;;;;;;;;12.53;100.00;102650.78;2090248;28;19921;-74
2022/12/31 07:13:11;;;;;;;;;;;;;;;12.53;100.00;102656.09;2085124;28;19925;-73
2022/12/31 07:14:34;;;;;;;;;;;;;;;12.54;100.00;102653.47;2086921;28;19955;-74
2022/12/31 07:16:02;;;;;;;;;;;;;;;12.58;100.00;102658.06;2085826;28;19921;-74
2022/12/31 07:17:31;;;;;;;;;;;;;;;12.67;100.00;102657.50;2087762;28;19932;-73
2022/12/31 07:18:58;;;;;;;;;;;;;;;12.79;100.00;102652.66;2078494;28;19925;-74